createdAt,value
2022-08-18T00:00:30.690Z,97509.66
2022-08-18T00:03:53.403Z,97506.88
2022-08-18T00:06:31.377Z,97502.72
2022-08-18T00:09:21.856Z,97500.75
2022-08-18T00:12:19.163Z,97516.09
2022-08-18T00:15:12.195Z,97509.25
2022-08-18T00:18:01.639Z,97513.00
2022-08-18T00:20:51.553Z,97518.00
2022-08-18T00:23:41.028Z,97510.75
2022-08-18T00:26:34.860Z,97507.81
2022-08-18T00:29:26.734Z,97518.53
2022-08-18T00:32:24.049Z,97529.00
2022-08-18T00:35:23.218Z,97518.97
2022-08-18T00:38:25.064Z,97519.28
2022-08-18T00:41:15.922Z,97531.47
2022-08-18T00:44:05.829Z,97527.19
2022-08-18T00:46:55.528Z,97532.31
2022-08-18T00:49:47.034Z,97530.41
2022-08-18T00:52:38.496Z,97536.81
2022-08-18T00:55:30.431Z,97542.28
2022-08-18T00:58:30.856Z,97541.47
2022-08-18T01:01:26.960Z,97549.38
2022-08-18T01:04:24.276Z,97549.41
2022-08-18T01:07:22.743Z,97548.44
2022-08-18T01:10:15.892Z,97554.97
2022-08-18T01:13:05.790Z,97545.25
2022-08-18T01:15:56.092Z,97551.09
2022-08-18T01:19:03.529Z,97552.34
2022-08-18T01:22:02.279Z,97553.38
2022-08-18T01:25:11.858Z,97556.28
2022-08-18T01:28:04.626Z,97549.22
2022-08-18T01:30:57.108Z,97555.22
2022-08-18T01:33:47.333Z,97563.41
2022-08-18T01:36:41.802Z,97560.38
2022-08-18T01:41:23.961Z,97555.78
2022-08-18T01:42:46.720Z,97558.59
2022-08-18T01:45:36.685Z,97561.75
2022-08-18T01:48:26.276Z,97556.22
2022-08-18T01:51:17.603Z,97560.94
2022-08-18T01:54:08.190Z,97561.50
2022-08-18T01:56:58.867Z,97567.59
2022-08-18T01:59:48.255Z,97571.50
2022-08-18T02:02:39.032Z,97575.41
2022-08-18T02:06:02.160Z,97573.06
2022-08-18T02:08:53.857Z,97587.13
2022-08-18T02:11:43.835Z,97583.34
2022-08-18T02:14:34.237Z,97586.41
2022-08-18T02:17:23.999Z,97593.78
2022-08-18T02:20:17.947Z,97593.91
2022-08-18T02:23:07.179Z,97606.44
2022-08-18T02:25:57.001Z,97605.19
2022-08-18T02:28:46.890Z,97599.06
2022-08-18T02:31:36.421Z,97607.41
2022-08-18T02:34:26.592Z,97612.94
2022-08-18T02:37:16.672Z,97617.41
2022-08-18T02:40:07.830Z,97624.78
2022-08-18T02:42:57.438Z,97624.50
2022-08-18T02:45:47.633Z,97624.91
2022-08-18T02:48:37.942Z,97639.53
2022-08-18T02:51:27.722Z,97634.94
2022-08-18T02:54:17.910Z,97635.88
2022-08-18T02:57:11.788Z,97637.78
2022-08-18T03:00:03.170Z,97636.78
2022-08-18T03:02:54.406Z,97642.91
2022-08-18T03:05:44.100Z,97643.34
2022-08-18T03:08:34.282Z,97642.50
2022-08-18T03:11:28.687Z,97651.06
2022-08-18T03:14:18.786Z,97661.41
2022-08-18T03:17:11.424Z,97660.34
2022-08-18T03:20:00.983Z,97669.00
2022-08-18T03:22:53.069Z,97662.16
2022-08-18T03:25:50.275Z,97660.69
2022-08-18T03:28:45.844Z,97665.81
2022-08-18T03:31:39.426Z,97674.00
2022-08-18T03:34:28.876Z,97663.97
2022-08-18T03:37:19.575Z,97677.19
2022-08-18T03:40:12.031Z,97678.16
2022-08-18T03:43:49.599Z,97678.75
2022-08-18T03:46:19.828Z,97681.66
2022-08-18T03:49:10.690Z,97678.03
2022-08-18T03:52:01.747Z,97680.63
2022-08-18T03:54:52.402Z,97680.03
2022-08-18T03:57:42.152Z,97680.56
2022-08-18T04:00:35.146Z,97682.06
2022-08-18T04:03:24.620Z,97685.34
2022-08-18T04:06:29.786Z,97688.31
2022-08-18T04:09:21.206Z,97694.50
2022-08-18T04:12:17.517Z,97689.88
2022-08-18T04:15:07.639Z,97699.66
2022-08-18T04:18:03.960Z,97697.13
2022-08-18T04:20:54.723Z,97701.69
2022-08-18T04:23:49.873Z,97703.41
2022-08-18T04:26:43.824Z,97696.81
2022-08-18T04:29:34.127Z,97702.00
2022-08-18T04:32:29.784Z,97699.38
2022-08-18T04:35:21.092Z,97699.47
2022-08-18T04:38:11.251Z,97696.50
2022-08-18T04:41:00.857Z,97703.22
2022-08-18T04:43:54.459Z,97694.59
2022-08-18T04:46:48.632Z,97697.63
2022-08-18T04:49:39.439Z,97697.34
2022-08-18T04:52:47.105Z,97707.56
2022-08-18T04:55:37.524Z,97701.47
2022-08-18T04:58:29.065Z,97715.41
2022-08-18T05:01:18.954Z,97718.63
2022-08-18T05:04:09.264Z,97717.72
2022-08-18T05:06:59.395Z,97714.25
2022-08-18T05:09:48.976Z,97716.38
2022-08-18T05:12:39.190Z,97713.25
2022-08-18T05:15:34.797Z,97717.22
2022-08-18T05:18:40.340Z,97721.13
2022-08-18T05:21:32.251Z,97718.81
2022-08-18T05:24:28.483Z,97716.47
2022-08-18T05:27:19.975Z,97712.50
2022-08-18T05:30:12.744Z,97705.34
2022-08-18T05:33:04.655Z,97709.50
2022-08-18T05:36:04.860Z,97712.50
2022-08-18T05:38:54.604Z,97712.19
2022-08-18T05:41:50.632Z,97717.09
2022-08-18T05:44:50.136Z,97716.75
2022-08-18T05:47:40.169Z,97717.88
2022-08-18T05:50:34.096Z,97713.38
2022-08-18T05:53:43.486Z,97710.06
2022-08-18T05:56:50.355Z,97703.34
2022-08-18T05:59:42.704Z,97707.38
2022-08-18T06:02:56.746Z,97709.00
2022-08-18T06:05:59.540Z,97701.06
2022-08-18T06:09:00.678Z,97707.81
2022-08-18T06:11:51.999Z,97704.44
2022-08-18T06:14:42.291Z,97708.09
2022-08-18T06:17:51.328Z,97699.94
2022-08-18T06:20:58.017Z,97702.91
2022-08-18T06:24:01.850Z,97696.25
2022-08-18T06:27:13.299Z,97692.53
2022-08-18T06:30:19.651Z,97692.09
2022-08-18T06:33:11.909Z,97679.91
2022-08-18T06:36:13.769Z,97680.81
2022-08-18T06:39:27.789Z,97675.66
2022-08-18T06:42:31.713Z,97672.63
2022-08-18T06:45:33.843Z,97664.03
2022-08-18T06:48:46.703Z,97663.53
2022-08-18T06:51:40.637Z,97653.78
2022-08-18T06:54:32.294Z,97652.13
2022-08-18T06:57:41.445Z,97649.44
2022-08-18T07:00:35.223Z,97651.50
2022-08-18T07:03:41.573Z,97661.25
2022-08-18T07:06:32.495Z,97649.06
2022-08-18T07:09:23.165Z,97649.75
2022-08-18T07:12:05.713Z,97650.28
2022-08-18T07:14:44.027Z,97651.00
2022-08-18T07:17:42.826Z,97644.47
2022-08-18T07:20:27.404Z,97635.94
2022-08-18T07:23:08.126Z,97633.44
2022-08-18T07:25:46.131Z,97631.97
2022-08-18T07:28:38.084Z,97629.09
2022-08-18T07:31:18.948Z,97623.06
2022-08-18T07:33:54.554Z,97631.22
2022-08-18T07:36:28.975Z,97626.63
2022-08-18T07:39:07.199Z,97631.50
2022-08-18T07:41:45.675Z,97625.88
2022-08-18T07:44:49.147Z,97632.63
2022-08-18T07:47:21.613Z,97624.69
2022-08-18T07:50:15.743Z,97634.75
2022-08-18T07:52:54.091Z,97615.41
2022-08-18T07:55:34.959Z,97619.22
2022-08-18T07:58:25.497Z,97617.69
2022-08-18T08:01:05.932Z,97612.72
2022-08-18T08:04:05.294Z,97611.59
2022-08-18T08:07:00.582Z,97613.25
2022-08-18T08:09:54.499Z,97612.63
2022-08-18T08:12:32.101Z,97604.13
2022-08-18T08:15:32.063Z,97601.66
2022-08-18T08:18:25.175Z,97607.09
2022-08-18T08:20:58.643Z,97604.41
2022-08-18T08:24:04.153Z,97594.38
2022-08-18T08:26:58.291Z,97590.88
2022-08-18T08:29:39.627Z,97591.25
2022-08-18T08:32:11.721Z,97589.38
2022-08-18T08:34:49.687Z,97575.84
2022-08-18T08:37:31.577Z,97585.38
2022-08-18T08:40:19.389Z,97576.97
2022-08-18T08:43:13.854Z,97578.69
2022-08-18T08:46:16.516Z,97584.63
2022-08-18T08:49:04.016Z,97573.72
2022-08-18T08:52:00.253Z,97571.06
2022-08-18T08:54:44.657Z,97560.38
2022-08-18T08:57:15.932Z,97552.19
2022-08-18T08:59:49.856Z,97554.41
2022-08-18T09:02:48.854Z,97549.31
2022-08-18T09:05:41.431Z,97544.88
2022-08-18T09:08:16.512Z,97544.09
2022-08-18T09:11:07.833Z,97538.94
2022-08-18T09:13:57.714Z,97533.78
2022-08-18T09:17:01.583Z,97524.66
2022-08-18T09:19:53.583Z,97526.78
2022-08-18T09:22:35.133Z,97519.59
2022-08-18T09:25:13.898Z,97515.47
2022-08-18T09:28:09.876Z,97508.63
2022-08-18T09:30:56.158Z,97499.06
2022-08-18T09:33:57.745Z,97496.84
2022-08-18T09:37:00.809Z,97495.38
2022-08-18T09:39:57.943Z,97497.09
2022-08-18T09:42:49.978Z,97489.38
2022-08-18T09:46:01.032Z,97482.94
2022-08-18T09:48:43.324Z,97479.97
2022-08-18T09:51:17.607Z,97475.38
2022-08-18T09:53:56.705Z,97479.19
2022-08-18T09:56:54.295Z,97467.75
2022-08-18T09:59:40.025Z,97466.75
2022-08-18T10:02:24.166Z,97469.09
2022-08-18T10:05:20.294Z,97465.13
2022-08-18T10:08:00.172Z,97471.19
2022-08-18T10:11:00.922Z,97469.31
2022-08-18T10:14:08.195Z,97462.09
2022-08-18T10:17:23.807Z,97462.44
2022-08-18T10:20:25.772Z,97461.34
2022-08-18T10:23:02.063Z,97457.31
2022-08-18T10:25:42.660Z,97460.25
2022-08-18T10:28:30.983Z,97459.66
2022-08-18T10:33:56.491Z,97453.09
2022-08-18T10:36:40.565Z,97442.41
2022-08-18T10:39:17.946Z,97450.75
2022-08-18T10:42:01.939Z,97438.78
2022-08-18T10:44:32.693Z,97429.66
2022-08-18T10:47:11.959Z,97433.63
2022-08-18T10:49:46.841Z,97429.97
2022-08-18T10:52:54.483Z,97419.47
2022-08-18T10:55:48.863Z,97417.88
2022-08-18T10:58:39.451Z,97426.72
2022-08-18T11:01:45.006Z,97419.81
2022-08-18T11:04:38.613Z,97418.56
2022-08-18T11:07:18.246Z,97416.16
2022-08-18T11:09:57.738Z,97414.63
2022-08-18T11:13:08.686Z,97413.28
2022-08-18T11:16:04.266Z,97420.38
2022-08-18T11:18:45.498Z,97404.81
2022-08-18T11:21:55.912Z,97414.03
2022-08-18T11:24:29.798Z,97400.22
2022-08-18T11:27:09.833Z,97407.16
2022-08-18T11:29:45.544Z,97406.22
2022-08-18T11:32:21.607Z,97386.28
2022-08-18T11:35:00.587Z,97390.03
2022-08-18T11:37:51.250Z,97383.84
2022-08-18T11:43:42.621Z,97377.34
2022-08-18T11:46:30.314Z,97385.06
2022-08-18T11:49:04.521Z,97374.41
2022-08-18T11:51:35.765Z,97373.06
2022-08-18T11:57:46.719Z,97380.09
2022-08-18T12:00:54.890Z,97379.69
2022-08-18T12:03:38.374Z,97375.72
2022-08-18T12:06:31.666Z,97369.44
2022-08-18T12:09:05.312Z,97372.16
2022-08-18T12:11:41.322Z,97375.28
2022-08-18T12:14:31.466Z,97378.78
2022-08-18T12:17:04.358Z,97367.53
2022-08-18T12:19:35.768Z,97373.03
2022-08-18T12:22:17.850Z,97374.84
2022-08-18T12:24:48.225Z,97363.59
2022-08-18T12:27:22.386Z,97361.34
2022-08-18T12:29:57.516Z,97364.53
2022-08-18T12:32:48.833Z,97356.63
2022-08-18T12:38:43.172Z,97363.72
2022-08-18T12:41:13.653Z,97364.47
2022-08-18T12:43:42.735Z,97354.53
2022-08-18T12:46:27.642Z,97358.56
2022-08-18T12:48:56.823Z,97365.56
2022-08-18T12:51:30.408Z,97350.44
2022-08-18T12:54:00.334Z,97353.13
2022-08-18T12:59:19.051Z,97348.50
2022-08-18T13:01:48.795Z,97352.34
2022-08-18T13:04:18.831Z,97354.19
2022-08-18T13:07:00.801Z,97350.13
2022-08-18T13:09:52.682Z,97350.66
2022-08-18T13:12:24.768Z,97349.50
2022-08-18T13:14:55.883Z,97343.22
2022-08-18T13:17:30.171Z,97354.16
2022-08-18T13:20:10.322Z,97348.03
2022-08-18T13:22:43.260Z,97350.50
2022-08-18T13:25:32.070Z,97354.00
2022-08-18T13:28:02.449Z,97357.66
2022-08-18T13:30:33.160Z,97348.19
2022-08-18T13:33:55.911Z,97349.84
2022-08-18T13:35:55.403Z,97360.63
2022-08-18T13:38:27.686Z,97355.66
2022-08-18T13:41:00.500Z,97357.16
2022-08-18T13:43:32.442Z,97354.66
2022-08-18T13:46:04.635Z,97358.16
2022-08-18T13:48:34.907Z,97358.97
2022-08-18T13:51:05.258Z,97373.03
2022-08-18T13:53:37.528Z,97361.41
2022-08-18T13:56:21.482Z,97358.06
2022-08-18T13:59:01.497Z,97358.41
2022-08-18T14:01:44.464Z,97365.06
2022-08-18T14:04:23.068Z,97359.06
2022-08-18T14:06:59.843Z,97364.19
2022-08-18T14:09:37.358Z,97374.28
2022-08-18T14:12:15.922Z,97381.97
2022-08-18T14:14:56.953Z,97383.47
2022-08-18T14:17:27.669Z,97389.75
2022-08-18T14:20:21.817Z,97389.09
2022-08-18T14:23:13.687Z,97388.09
2022-08-18T14:26:01.710Z,97389.56
2022-08-18T14:28:32.556Z,97396.53
2022-08-18T14:31:04.677Z,97396.03
2022-08-18T14:33:51.542Z,97398.81
2022-08-18T14:36:29.777Z,97400.13
2022-08-18T14:39:01.490Z,97402.81
2022-08-18T14:41:31.432Z,97401.47
2022-08-18T14:44:11.402Z,97400.13
2022-08-18T14:46:42.024Z,97407.94
2022-08-18T14:49:28.389Z,97402.97
2022-08-18T14:52:02.120Z,97406.50
2022-08-18T14:54:32.395Z,97401.31
2022-08-18T14:57:04.003Z,97400.44
2022-08-18T14:59:34.609Z,97400.44
2022-08-18T15:02:13.250Z,97412.44
2022-08-18T15:04:55.955Z,97413.75
2022-08-18T15:07:25.950Z,97405.75
2022-08-18T15:10:15.560Z,97417.53
2022-08-18T15:12:46.081Z,97415.47
2022-08-18T15:15:17.909Z,97431.41
2022-08-18T15:17:49.967Z,97436.66
2022-08-18T15:20:29.423Z,97436.25
2022-08-18T15:23:24.994Z,97438.69
2022-08-18T15:25:59.060Z,97446.00
2022-08-18T15:28:33.919Z,97450.31
2022-08-18T15:34:07.646Z,97453.09
2022-08-18T15:36:41.791Z,97450.41
2022-08-18T15:39:11.247Z,97461.22
2022-08-18T15:41:47.633Z,97461.25
2022-08-18T15:44:20.906Z,97468.69
2022-08-18T15:46:51.199Z,97461.22
2022-08-18T15:49:23.057Z,97461.50
2022-08-18T15:51:52.781Z,97462.88
2022-08-18T15:54:22.060Z,97453.94
2022-08-18T15:56:58.133Z,97457.88
2022-08-18T15:59:39.979Z,97451.31
2022-08-18T16:02:11.745Z,97455.63
2022-08-18T16:04:46.576Z,97460.59
2022-08-18T16:07:17.913Z,97460.84
2022-08-18T16:09:54.274Z,97464.13
2022-08-18T16:12:23.492Z,97462.75
2022-08-18T16:14:54.455Z,97459.16
2022-08-18T16:17:29.894Z,97462.75
2022-08-18T16:20:02.118Z,97463.38
2022-08-18T16:22:33.365Z,97463.47
2022-08-18T16:25:04.619Z,97462.63
2022-08-18T16:27:35.451Z,97471.84
2022-08-18T16:30:24.647Z,97464.44
2022-08-18T16:32:54.417Z,97474.06
2022-08-18T16:35:24.465Z,97468.91
2022-08-18T16:37:53.581Z,97472.16
2022-08-18T16:40:22.696Z,97465.50
2022-08-18T16:42:57.117Z,97464.69
2022-08-18T16:45:26.204Z,97470.31
2022-08-18T16:47:56.018Z,97466.97
2022-08-18T16:50:26.917Z,97468.31
2022-08-18T16:52:56.429Z,97461.88
2022-08-18T16:55:25.951Z,97466.97
2022-08-18T16:58:15.589Z,97467.81
2022-08-18T17:01:18.823Z,97470.97
2022-08-18T17:04:14.852Z,97471.13
2022-08-18T17:06:50.518Z,97468.03
2022-08-18T17:09:20.965Z,97463.25
2022-08-18T17:11:52.052Z,97463.34
2022-08-18T17:14:23.293Z,97462.59
2022-08-18T17:16:56.903Z,97463.16
2022-08-18T17:19:28.946Z,97478.41
2022-08-18T17:21:58.305Z,97480.38
2022-08-18T17:24:31.823Z,97469.78
2022-08-18T17:27:26.246Z,97466.56
2022-08-18T17:30:01.563Z,97457.56
2022-08-18T17:33:03.241Z,97459.63
2022-08-18T17:35:35.653Z,97458.78
2022-08-18T17:38:18.952Z,97465.22
2022-08-18T17:40:52.286Z,97477.16
2022-08-18T17:43:24.820Z,97478.09
2022-08-18T17:46:06.777Z,97472.16
2022-08-18T17:48:44.404Z,97474.72
2022-08-18T17:51:43.529Z,97474.81
2022-08-18T17:54:28.698Z,97479.34
2022-08-18T17:57:17.708Z,97484.34
2022-08-18T17:59:59.553Z,97486.69
2022-08-18T18:02:32.326Z,97485.50
2022-08-18T18:05:06.569Z,97487.00
2022-08-18T18:07:58.730Z,97489.22
2022-08-18T18:10:56.447Z,97486.34
2022-08-18T18:13:36.463Z,97488.38
2022-08-18T18:16:35.776Z,97491.03
2022-08-18T18:19:08.580Z,97484.31
2022-08-18T18:21:55.395Z,97489.22
2022-08-18T18:24:34.074Z,97496.31
2022-08-18T18:27:03.327Z,97486.91
2022-08-18T18:29:38.433Z,97493.19
2022-08-18T18:32:28.429Z,97487.75
2022-08-18T18:35:06.397Z,97490.28
2022-08-18T18:37:47.211Z,97494.19
2022-08-18T18:40:39.872Z,97491.53
2022-08-18T18:43:35.445Z,97488.06
2022-08-18T18:46:24.247Z,97490.03
2022-08-18T18:49:24.439Z,97488.72
2022-08-18T18:52:27.808Z,97498.34
2022-08-18T18:55:07.820Z,97499.63
2022-08-18T18:57:45.992Z,97500.63
2022-08-18T19:00:54.046Z,97501.59
2022-08-18T19:03:39.556Z,97499.63
2022-08-18T19:06:50.418Z,97494.72
2022-08-18T19:09:50.106Z,97495.84
2022-08-18T19:12:26.045Z,97497.75
2022-08-18T19:15:09.326Z,97493.34
2022-08-18T19:17:52.707Z,97486.47
2022-08-18T19:20:29.133Z,97486.31
2022-08-18T19:23:29.847Z,97482.38
2022-08-18T19:26:08.174Z,97489.09
2022-08-18T19:29:12.796Z,97483.91
2022-08-18T19:31:45.868Z,97478.28
2022-08-18T19:34:31.211Z,97476.72
2022-08-18T19:37:18.368Z,97470.03
2022-08-18T19:40:05.340Z,97466.94
2022-08-18T19:42:43.329Z,97458.78
2022-08-18T19:45:58.976Z,97459.84
2022-08-18T19:48:48.478Z,97466.72
2022-08-18T19:51:41.040Z,97465.59
2022-08-18T19:54:34.233Z,97462.28
2022-08-18T19:57:14.699Z,97463.97
2022-08-18T19:59:49.084Z,97455.22
2022-08-18T20:02:42.326Z,97457.34
2022-08-18T20:05:30.338Z,97445.16
2022-08-18T20:08:30.083Z,97451.75
2022-08-18T20:11:14.003Z,97448.41
2022-08-18T20:13:45.821Z,97449.69
2022-08-18T20:16:45.193Z,97448.41
2022-08-18T20:19:40.797Z,97449.63
2022-08-18T20:22:24.499Z,97445.00
2022-08-18T20:25:06.621Z,97433.19
2022-08-18T20:28:14.110Z,97439.78
2022-08-18T20:30:54.519Z,97439.25
2022-08-18T20:33:27.002Z,97439.31
2022-08-18T20:36:29.301Z,97428.13
2022-08-18T20:39:01.355Z,97424.88
2022-08-18T20:41:30.654Z,97424.91
2022-08-18T20:44:09.180Z,97426.56
2022-08-18T20:46:52.864Z,97427.91
2022-08-18T20:49:39.706Z,97438.63
2022-08-18T20:52:38.620Z,97430.00
2022-08-18T20:55:22.746Z,97432.63
2022-08-18T20:57:56.015Z,97430.25
2022-08-18T21:00:27.311Z,97425.19
2022-08-18T21:03:00.650Z,97423.56
2022-08-18T21:05:39.016Z,97430.88
2022-08-18T21:08:32.742Z,97419.38
2022-08-18T21:11:05.589Z,97421.03
2022-08-18T21:13:44.641Z,97413.94
2022-08-18T21:16:15.095Z,97417.44
2022-08-18T21:19:20.664Z,97407.75
2022-08-18T21:21:52.786Z,97412.13
2022-08-18T21:24:39.941Z,97415.00
2022-08-18T21:27:13.784Z,97416.00
2022-08-18T21:29:49.839Z,97413.03
2022-08-18T21:32:30.132Z,97414.63
2022-08-18T21:35:10.639Z,97416.06
2022-08-18T21:37:42.702Z,97414.06
2022-08-18T21:40:12.344Z,97414.69
2022-08-18T21:42:44.726Z,97411.97
2022-08-18T21:45:22.843Z,97412.16
2022-08-18T21:47:58.833Z,97409.63
2022-08-18T21:50:30.685Z,97412.66
2022-08-18T21:53:17.225Z,97417.50
2022-08-18T21:55:55.980Z,97406.38
2022-08-18T21:58:35.498Z,97414.31
2022-08-18T22:01:26.205Z,97421.16
2022-08-18T22:04:01.343Z,97422.59
2022-08-18T22:06:36.402Z,97426.34
2022-08-18T22:09:29.898Z,97422.41
2022-08-18T22:13:02.104Z,97410.16
2022-08-18T22:15:31.872Z,97421.81
2022-08-18T22:18:38.884Z,97411.59
2022-08-18T22:21:37.089Z,97408.25
2022-08-18T22:24:21.495Z,97416.66
2022-08-18T22:31:12.952Z,97407.69
2022-08-18T22:33:57.593Z,97409.84
2022-08-18T22:36:38.082Z,97407.19
2022-08-18T22:39:13.661Z,97418.66
2022-08-18T22:41:56.169Z,97414.13
2022-08-18T22:44:31.768Z,97414.13
2022-08-18T22:47:13.307Z,97411.41
2022-08-18T22:49:58.397Z,97405.34
2022-08-18T22:52:32.260Z,97406.88
2022-08-18T22:55:08.558Z,97409.66
2022-08-18T22:57:44.790Z,97411.16
2022-08-18T23:00:24.626Z,97403.66
2022-08-18T23:03:07.521Z,97404.81
2022-08-18T23:05:37.477Z,97407.56
2022-08-18T23:08:06.683Z,97408.38
2022-08-18T23:10:35.896Z,97410.94
2022-08-18T23:13:04.825Z,97410.66
2022-08-18T23:15:51.312Z,97410.94
2022-08-18T23:18:22.474Z,97405.88
2022-08-18T23:21:00.060Z,97402.69
2022-08-18T23:23:31.969Z,97408.28
2022-08-18T23:26:04.314Z,97402.84
2022-08-18T23:28:33.482Z,97394.63
2022-08-18T23:31:02.411Z,97401.22
2022-08-18T23:33:31.825Z,97388.97
2022-08-18T23:36:00.577Z,97394.44
2022-08-18T23:38:31.681Z,97395.81
2022-08-18T23:41:01.091Z,97403.66
2022-08-18T23:43:30.660Z,97412.38
2022-08-18T23:45:59.766Z,97414.59
2022-08-18T23:48:51.109Z,97410.50
2022-08-18T23:51:52.021Z,97414.06
2022-08-18T23:54:27.164Z,97417.91
2022-08-18T23:56:56.354Z,97417.72
2022-08-18T23:59:27.088Z,97414.66
